Time;durP1;ratioP1;P1;durP2;ratioP2;P2;SDS_P1;SDS_P2;PMS_P1;PMS_P2;Temp;Humidity;BMP_temperature;BMP_pressure;BME280_temperature;BME280_humidity;BME280_pressure;Samples;Min_cycle;Max_cycle;Signal;HPM_P1;HPM_P2
2023/05/20 00:09:07;;;;;;;33.8;22.2;;;;;;;-132.3;0;78090;;;;
2023/05/20 00:19:07;;;;;;;33.8;22.2;;;;;;;-132.3;0;78090;;;;
2023/05/20 00:29:07;;;;;;;20.6;15.4;;;;;;;-132.3;0;78080;;;;
2023/05/20 00:39:07;;;;;;;21.9;15.5;;;;;;;-132.3;0;78070;;;;
2023/05/20 00:49:07;;;;;;;21.9;15.5;;;;;;;-132.3;0;78060;;;;
2023/05/20 01:00:07;;;;;;;21.9;15.5;;;;;;;-132.3;0;78060;;;;
2023/05/20 01:11:07;;;;;;;21.6;13.6;;;;;;;-132.3;0;78050;;;;
2023/05/20 01:21:07;;;;;;;21.6;13.6;;;;;;;-132.3;0;78040;;;;
2023/05/20 01:32:07;;;;;;;21.6;13.6;;;;;;;-132.3;0;78040;;;;
2023/05/20 01:42:07;;;;;;;20.8;13.5;;;;;;;-132.3;0;78030;;;;
2023/05/20 01:52:07;;;;;;;20.8;13.5;;;;;;;-132.3;0;78040;;;;
2023/05/20 02:03:07;;;;;;;23.4;18;;;;;;;-132.3;0;78040;;;;
2023/05/20 02:13:07;;;;;;;23.4;18;;;;;;;-132.3;0;78030;;;;
2023/05/20 02:24:07;;;;;;;23.4;18;;;;;;;-132.3;0;78030;;;;
2023/05/20 02:34:07;;;;;;;27.7;21.1;;;;;;;-132.3;0;78030;;;;
2023/05/20 02:45:07;;;;;;;27.7;21.1;;;;;;;-132.3;0;78020;;;;
2023/05/20 02:56:07;;;;;;;27.7;21.1;;;;;;;-132.3;0;78030;;;;
2023/05/20 03:06:07;;;;;;;31.1;23.4;;;;;;;-132.3;0;78020;;;;
2023/05/20 03:16:07;;;;;;;31.1;23.4;;;;;;;-132.3;0;78020;;;;
2023/05/20 03:26:07;;;;;;;31.1;23.4;;;;;;;-132.3;0;78020;;;;
2023/05/20 03:36:07;;;;;;;30;20.8;;;;;;;-132.3;0;78010;;;;
2023/05/20 03:47:07;;;;;;;30;20.8;;;;;;;-132.3;0;78010;;;;
2023/05/20 03:57:09;;;;;;;30;20.8;;;;;;;-132.3;0;78000;;;;
2023/05/20 04:07:07;;;;;;;27.6;20.9;;;;;;;-132.3;0;78000;;;;
2023/05/20 04:17:08;;;;;;;27.6;20.9;;;;;;;-132.3;0;77990;;;;
2023/05/20 04:27:07;;;;;;;27.6;20.9;;;;;;;-132.3;0;77960;;;;
2023/05/20 04:38:07;;;;;;;30.5;23;;;;;;;-132.3;0;77970;;;;
2023/05/20 04:48:08;;;;;;;30.5;23;;;;;;;-132.3;0;77940;;;;
2023/05/20 04:59:08;;;;;;;30.5;23;;;;;;;-132.3;0;77910;;;;
2023/05/20 05:09:08;;;;;;;27.8;24.1;;;;;;;-132.3;0;77890;;;;
2023/05/20 05:20:07;;;;;;;27.8;24.1;;;;;;;-132.3;0;77880;;;;
2023/05/20 05:30:07;;;;;;;27.8;24.1;;;;;;;-132.3;0;77870;;;;
2023/05/20 05:41:07;;;;;;;27.4;20.8;;;;;;;-132.3;0;77860;;;;
2023/05/20 05:51:07;;;;;;;27.4;20.8;;;;;;;-132.3;0;77840;;;;
2023/05/20 06:02:09;;;;;;;27;21.7;;;;;;;-132.3;0;77830;;;;
2023/05/20 06:12:07;;;;;;;27;21.7;;;;;;;-132.3;0;77800;;;;
2023/05/20 06:22:07;;;;;;;27;21.7;;;;;;;-132.3;0;77760;;;;
2023/05/20 06:33:07;;;;;;;24;18.6;;;;;;;-132.3;0;77710;;;;
2023/05/20 06:43:07;;;;;;;24;18.6;;;;;;;-132.3;0;77670;;;;
2023/05/20 06:53:07;;;;;;;24;18.6;;;;;;;-132.3;0;77630;;;;
2023/05/20 07:03:07;;;;;;;23.4;19.2;;;;;;;-132.3;0;77600;;;;
2023/05/20 07:13:07;;;;;;;23.4;19.2;;;;;;;-132.3;0;77590;;;;
2023/05/20 07:24:07;;;;;;;23.4;19.2;;;;;;;-132.3;0;77560;;;;
2023/05/20 07:34:07;;;;;;;27.3;20;;;;;;;-132.3;0;77550;;;;
2023/05/20 07:44:07;;;;;;;27.3;20;;;;;;;-132.3;0;77530;;;;
2023/05/20 07:54:07;;;;;;;27.3;20;;;;;;;-132.3;0;77500;;;;
2023/05/20 08:05:07;;;;;;;24.5;19.5;;;;;;;-132.3;0;77460;;;;
2023/05/20 08:15:07;;;;;;;24.5;19.5;;;;;;;-132.3;0;77400;;;;
2023/05/20 08:25:07;;;;;;;24.5;19.5;;;;;;;-132.3;0;77340;;;;
2023/05/20 08:36:08;;;;;;;17;13.1;;;;;;;-132.3;0;77370;;;;
2023/05/20 08:47:07;;;;;;;17;13.1;;;;;;;-132.3;0;77320;;;;
2023/05/20 08:58:07;;;;;;;17;13.1;;;;;;;-132.3;0;77310;;;;
2023/05/20 09:09:08;;;;;;;22;15.6;;;;;;;-132.3;0;77290;;;;
2023/05/20 09:20:07;;;;;;;22;15.6;;;;;;;-132.3;0;77240;;;;
2023/05/20 09:31:07;;;;;;;22;15.6;;;;;;;-132.3;0;77240;;;;
2023/05/20 09:42:07;;;;;;;24.2;17.5;;;;;;;-132.3;0;77210;;;;
2023/05/20 09:52:07;;;;;;;24.2;17.5;;;;;;;-132.3;0;77190;;;;
2023/05/20 10:03:07;;;;;;;25.4;20.6;;;;;;;-132.3;0;77170;;;;
2023/05/20 10:13:07;;;;;;;25.4;20.6;;;;;;;-132.3;0;77130;;;;
2023/05/20 10:24:07;;;;;;;25.4;20.6;;;;;;;-132.3;0;77140;;;;
2023/05/20 10:35:07;;;;;;;28.3;23.2;;;;;;;-132.3;0;77090;;;;
2023/05/20 10:45:07;;;;;;;28.3;23.2;;;;;;;-132.3;0;76980;;;;
2023/05/20 10:56:07;;;;;;;28.3;23.2;;;;;;;-132.3;0;76900;;;;
2023/05/20 11:06:08;;;;;;;30.9;23.6;;;;;;;-132.3;0;76860;;;;
2023/05/20 11:17:07;;;;;;;30.9;23.6;;;;;;;-132.3;0;76820;;;;
2023/05/20 11:27:08;;;;;;;30.9;23.6;;;;;;;-132.3;0;76810;;;;
2023/05/20 11:37:07;;;;;;;26.3;22.4;;;;;;;-132.3;0;76800;;;;
2023/05/20 11:47:07;;;;;;;26.3;22.4;;;;;;;-132.3;0;76810;;;;
2023/05/20 11:57:08;;;;;;;26.3;22.4;;;;;;;-132.3;0;76770;;;;
2023/05/20 12:07:09;;;;;;;27.5;23.6;;;;;;;-132.3;0;76770;;;;
2023/05/20 12:17:07;;;;;;;27.5;23.6;;;;;;;-132.3;0;76720;;;;
2023/05/20 12:27:07;;;;;;;27.5;23.6;;;;;;;-132.3;0;76710;;;;
2023/05/20 12:38:07;;;;;;;26.4;20.5;;;;;;;-132.3;0;76700;;;;
2023/05/20 12:49:07;;;;;;;26.4;20.5;;;;;;;-132.3;0;76600;;;;
2023/05/20 12:59:07;;;;;;;26.4;20.5;;;;;;;-132.3;0;76550;;;;
2023/05/20 13:09:08;;;;;;;26;19.6;;;;;;;-132.3;0;76530;;;;
2023/05/20 13:20:07;;;;;;;26;19.6;;;;;;;-132.3;0;76500;;;;
2023/05/20 13:30:07;;;;;;;26;19.6;;;;;;;-132.3;0;76440;;;;
2023/05/20 13:41:07;;;;;;;25.5;20;;;;;;;-132.3;0;76410;;;;
2023/05/20 13:52:07;;;;;;;25.5;20;;;;;;;-132.3;0;76410;;;;
2023/05/20 14:02:07;;;;;;;25.5;20;;;;;;;-132.3;0;76380;;;;
2023/05/20 14:12:08;;;;;;;21.1;16.2;;;;;;;-132.3;0;76290;;;;
2023/05/20 14:22:08;;;;;;;21.1;16.2;;;;;;;-132.3;0;76260;;;;
2023/05/20 14:33:07;;;;;;;18;14.3;;;;;;;-132.3;0;76240;;;;
2023/05/20 14:43:08;;;;;;;18;14.3;;;;;;;-132.3;0;76200;;;;
2023/05/20 14:54:09;;;;;;;18;14.3;;;;;;;-132.3;0;76160;;;;
2023/05/20 15:05:10;;;;;;;16.5;11.8;;;;;;;-132.3;0;75950;;;;
2023/05/20 15:15:07;;;;;;;16.5;11.8;;;;;;;-132.3;0;75850;;;;
2023/05/20 15:25:07;;;;;;;16.5;11.8;;;;;;;-132.3;0;75730;;;;
2023/05/20 15:36:07;;;;;;;14;10.3;;;;;;;-132.3;0;75680;;;;
2023/05/20 15:46:07;;;;;;;14;10.3;;;;;;;-132.3;0;75520;;;;
2023/05/20 15:56:08;;;;;;;14;10.3;;;;;;;-132.3;0;75460;;;;
2023/05/20 16:06:09;;;;;;;14;9.6;;;;;;;-132.3;0;75610;;;;
2023/05/20 16:16:08;;;;;;;14;9.6;;;;;;;-132.3;0;75760;;;;
2023/05/20 16:27:08;;;;;;;14;9.6;;;;;;;-132.3;0;75700;;;;
2023/05/20 16:38:08;;;;;;;12.8;8.8;;;;;;;-132.3;0;75880;;;;
2023/05/20 16:49:08;;;;;;;12.8;8.8;;;;;;;-132.3;0;75980;;;;
2023/05/20 16:59:08;;;;;;;12.8;8.8;;;;;;;-132.3;0;76030;;;;
2023/05/20 17:09:08;;;;;;;13.4;9;;;;;;;-132.3;0;76030;;;;
2023/05/20 17:20:08;;;;;;;13.4;9;;;;;;;-132.3;0;76180;;;;
2023/05/20 17:30:08;;;;;;;13.4;9;;;;;;;-132.3;0;76280;;;;
2023/05/20 17:41:08;;;;;;;12.5;8.3;;;;;;;-132.3;0;76360;;;;
2023/05/20 17:51:08;;;;;;;12.5;8.3;;;;;;;-132.3;0;76460;;;;
2023/05/20 18:02:08;;;;;;;12.5;8.3;;;;;;;-132.3;0;76520;;;;
2023/05/20 18:13:08;;;;;;;13;9.6;;;;;;;-132.3;0;76580;;;;
2023/05/20 18:23:08;;;;;;;13;9.6;;;;;;;-132.3;0;76640;;;;
2023/05/20 18:33:08;;;;;;;16.2;10.9;;;;;;;-132.3;0;76710;;;;
2023/05/20 18:43:08;;;;;;;16.2;10.9;;;;;;;-132.3;0;76770;;;;
2023/05/20 18:53:08;;;;;;;16.2;10.9;;;;;;;-132.3;0;76810;;;;
2023/05/20 19:04:08;;;;;;;14.6;9.9;;;;;;;-132.3;0;76850;;;;
2023/05/20 19:14:08;;;;;;;14.6;9.9;;;;;;;-132.3;0;76890;;;;
2023/05/20 19:25:08;;;;;;;14.6;9.9;;;;;;;-132.3;0;76920;;;;
2023/05/20 19:35:08;;;;;;;16.3;10.3;;;;;;;-132.3;0;76970;;;;
2023/05/20 19:45:08;;;;;;;16.3;10.3;;;;;;;-132.3;0;76980;;;;
2023/05/20 19:56:08;;;;;;;16.3;10.3;;;;;;;-132.3;0;77000;;;;
2023/05/20 20:07:08;;;;;;;12.8;11.4;;;;;;;-132.3;0;77020;;;;
2023/05/20 20:18:08;;;;;;;12.8;11.4;;;;;;;-132.3;0;77040;;;;
2023/05/20 20:29:08;;;;;;;12.8;11.4;;;;;;;-132.3;0;77070;;;;
2023/05/20 20:39:17;;;;;;;13.6;11.7;;;;;;;-132.3;0;77110;;;;
2023/05/20 20:50:08;;;;;;;13.6;11.7;;;;;;;-132.3;0;77120;;;;
2023/05/20 21:00:15;;;;;;;13.6;11.7;;;;;;;-132.3;0;77140;;;;
2023/05/20 21:10:08;;;;;;;14;12.6;;;;;;;-132.3;0;77160;;;;
2023/05/20 21:21:11;;;;;;;14;12.6;;;;;;;-132.3;0;77190;;;;
2023/05/20 21:32:08;;;;;;;14;12.6;;;;;;;-132.3;0;77230;;;;
2023/05/20 21:42:08;;;;;;;15.9;14.2;;;;;;;-132.3;0;77250;;;;
2023/05/20 21:52:08;;;;;;;15.9;14.2;;;;;;;-132.3;0;77260;;;;
2023/05/20 22:03:08;;;;;;;19.8;17.8;;;;;;;-132.3;0;77270;;;;
2023/05/20 22:13:09;;;;;;;19.8;17.8;;;;;;;-132.3;0;77290;;;;
2023/05/20 22:23:08;;;;;;;19.8;17.8;;;;;;;-132.3;0;77310;;;;
2023/05/20 22:33:08;;;;;;;20.5;18.2;;;;;;;-132.3;0;77330;;;;
2023/05/20 22:43:08;;;;;;;20.5;18.2;;;;;;;-132.3;0;77340;;;;
2023/05/20 22:53:08;;;;;;;20.5;18.2;;;;;;;-132.3;0;77340;;;;
2023/05/20 23:03:08;;;;;;;19.9;16.8;;;;;;;-132.3;0;77360;;;;
2023/05/20 23:13:08;;;;;;;19.9;16.8;;;;;;;-132.3;0;77370;;;;
2023/05/20 23:24:08;;;;;;;19.9;16.8;;;;;;;-132.3;0;77370;;;;
2023/05/20 23:34:08;;;;;;;18.8;16.8;;;;;;;-132.3;0;77360;;;;
2023/05/20 23:45:08;;;;;;;18.8;16.8;;;;;;;-132.3;0;77350;;;;
2023/05/20 23:56:08;;;;;;;18.8;16.8;;;;;;;-132.3;0;77350;;;;
